sensor_id;sensor_type;location;lat;lon;timestamp;pressure;altitude;pressure_sealevel;temperature;humidity
8697;BME280;4385;48.848;8.924;2023-03-21T00:00:20;97617.09;;;19.06;100.00
8697;BME280;4385;48.848;8.924;2023-03-21T00:02:46;97624.81;;;19.05;100.00
8697;BME280;4385;48.848;8.924;2023-03-21T00:05:11;97617.09;;;19.06;100.00
8697;BME280;4385;48.848;8.924;2023-03-21T00:07:36;97616.22;;;19.07;100.00
8697;BME280;4385;48.848;8.924;2023-03-21T00:10:02;97616.22;;;19.07;100.00
8697;BME280;4385;48.848;8.924;2023-03-21T00:12:27;97608.56;;;19.07;100.00
8697;BME280;4385;48.848;8.924;2023-03-21T00:14:57;97608.56;;;19.07;100.00
8697;BME280;4385;48.848;8.924;2023-03-21T00:17:29;97608.56;;;19.07;100.00
8697;BME280;4385;48.848;8.924;2023-03-21T00:19:59;97615.38;;;19.09;100.00
8697;BME280;4385;48.848;8.924;2023-03-21T00:22:26;97599.19;;;19.08;100.00
8697;BME280;4385;48.848;8.924;2023-03-21T00:24:52;97605.16;;;19.09;100.00
8697;BME280;4385;48.848;8.924;2023-03-21T00:27:18;97602.59;;;19.09;100.00
8697;BME280;4385;48.848;8.924;2023-03-21T00:29:46;97597.50;;;19.09;100.00
8697;BME280;4385;48.848;8.924;2023-03-21T00:32:16;97588.13;;;19.07;100.00
8697;BME280;4385;48.848;8.924;2023-03-21T00:34:42;97593.22;;;19.07;100.00
8697;BME280;4385;48.848;8.924;2023-03-21T00:37:08;97583.91;;;19.06;100.00
8697;BME280;4385;48.848;8.924;2023-03-21T00:39:36;97586.47;;;19.06;100.00
8697;BME280;4385;48.848;8.924;2023-03-21T00:42:02;97581.34;;;19.06;100.00
8697;BME280;4385;48.848;8.924;2023-03-21T00:44:28;97582.16;;;19.07;100.00
8697;BME280;4385;48.848;8.924;2023-03-21T00:46:53;97586.47;;;19.06;100.00
8697;BME280;4385;48.848;8.924;2023-03-21T00:49:18;97575.38;;;19.06;100.00
8697;BME280;4385;48.848;8.924;2023-03-21T00:51:45;97574.53;;;19.05;100.00
8697;BME280;4385;48.848;8.924;2023-03-21T00:54:11;97575.38;;;19.06;100.00
8697;BME280;4385;48.848;8.924;2023-03-21T00:56:36;97571.22;;;19.03;100.00
8697;BME280;4385;48.848;8.924;2023-03-21T00:59:02;97567.84;;;19.01;100.00
8697;BME280;4385;48.848;8.924;2023-03-21T01:01:27;97567.03;;;18.99;100.00
8697;BME280;4385;48.848;8.924;2023-03-21T01:03:57;97572.03;;;19.04;100.00
8697;BME280;4385;48.848;8.924;2023-03-21T01:06:27;97571.22;;;19.03;100.00
8697;BME280;4385;48.848;8.924;2023-03-21T01:08:53;97558.47;;;19.02;100.00
8697;BME280;4385;48.848;8.924;2023-03-21T01:11:21;97563.63;;;19.00;100.00
8697;BME280;4385;48.848;8.924;2023-03-21T01:13:47;97561.06;;;19.00;100.00
8697;BME280;4385;48.848;8.924;2023-03-21T01:16:12;97556.00;;;18.99;100.00
8697;BME280;4385;48.848;8.924;2023-03-21T01:18:39;97558.53;;;18.99;100.00
8697;BME280;4385;48.848;8.924;2023-03-21T01:21:08;97561.06;;;19.00;100.00
8697;BME280;4385;48.848;8.924;2023-03-21T01:23:34;97549.97;;;19.01;100.00
8697;BME280;4385;48.848;8.924;2023-03-21T01:25:59;97546.53;;;19.02;100.00
8697;BME280;4385;48.848;8.924;2023-03-21T01:28:26;97552.44;;;19.04;100.00
8697;BME280;4385;48.848;8.924;2023-03-21T01:30:52;97559.22;;;19.05;100.00
8697;BME280;4385;48.848;8.924;2023-03-21T01:33:19;97555.81;;;19.06;100.00
8697;BME280;4385;48.848;8.924;2023-03-21T01:35:45;97548.16;;;19.06;100.00
8697;BME280;4385;48.848;8.924;2023-03-21T01:38:10;97553.25;;;19.06;100.00
8697;BME280;4385;48.848;8.924;2023-03-21T01:40:37;97560.06;;;19.06;100.00
8697;BME280;4385;48.848;8.924;2023-03-21T01:43:03;97553.28;;;19.05;100.00
8697;BME280;4385;48.848;8.924;2023-03-21T01:48:47;97550.81;;;19.02;100.00
8697;BME280;4385;48.848;8.924;2023-03-21T01:51:14;97545.75;;;19.00;100.00
8697;BME280;4385;48.848;8.924;2023-03-21T01:53:40;97544.03;;;18.99;100.00
8697;BME280;4385;48.848;8.924;2023-03-21T01:56:21;97547.47;;;18.98;100.00
8697;BME280;4385;48.848;8.924;2023-03-21T01:58:48;97550.91;;;18.97;100.00
8697;BME280;4385;48.848;8.924;2023-03-21T02:01:14;97551.78;;;18.96;100.00
8697;BME280;4385;48.848;8.924;2023-03-21T02:03:41;97547.56;;;18.95;100.00
8697;BME280;4385;48.848;8.924;2023-03-21T02:06:19;97540.78;;;18.94;100.00
8697;BME280;4385;48.848;8.924;2023-03-21T02:08:45;97541.63;;;18.93;100.00
8697;BME280;4385;48.848;8.924;2023-03-21T02:11:12;97537.38;;;18.93;100.00
8697;BME280;4385;48.848;8.924;2023-03-21T02:13:38;97538.22;;;18.94;100.00
8697;BME280;4385;48.848;8.924;2023-03-21T02:16:11;97540.78;;;18.94;100.00
8697;BME280;4385;48.848;8.924;2023-03-21T02:21:47;97522.00;;;18.95;100.00
8697;BME280;4385;48.848;8.924;2023-03-21T02:27:09;97519.44;;;18.97;100.00
8697;BME280;4385;48.848;8.924;2023-03-21T02:38:13;97512.63;;;18.97;100.00
8697;BME280;4385;48.848;8.924;2023-03-21T02:40:51;97515.19;;;18.96;100.00
8697;BME280;4385;48.848;8.924;2023-03-21T02:43:27;97511.81;;;18.95;100.00
8697;BME280;4385;48.848;8.924;2023-03-21T02:46:27;97511.81;;;18.95;100.00
8697;BME280;4385;48.848;8.924;2023-03-21T02:49:02;97503.34;;;18.93;100.00
8697;BME280;4385;48.848;8.924;2023-03-21T02:51:32;97503.34;;;18.93;100.00
8697;BME280;4385;48.848;8.924;2023-03-21T02:54:08;97507.63;;;18.92;100.00
8697;BME280;4385;48.848;8.924;2023-03-21T02:56:36;97510.22;;;18.91;100.00
8697;BME280;4385;48.848;8.924;2023-03-21T02:59:03;97500.00;;;18.91;100.00
8697;BME280;4385;48.848;8.924;2023-03-21T03:01:30;97504.25;;;18.90;100.00
8697;BME280;4385;48.848;8.924;2023-03-21T03:03:56;97508.50;;;18.90;100.00
8697;BME280;4385;48.848;8.924;2023-03-21T03:06:25;97508.50;;;18.90;100.00
8697;BME280;4385;48.848;8.924;2023-03-21T03:12:04;97505.97;;;18.90;100.00
8697;BME280;4385;48.848;8.924;2023-03-21T03:14:44;97506.78;;;18.92;100.00
8697;BME280;4385;48.848;8.924;2023-03-21T03:17:34;97504.25;;;18.90;100.00
8697;BME280;4385;48.848;8.924;2023-03-21T03:25:54;97496.56;;;18.92;100.00
8697;BME280;4385;48.848;8.924;2023-03-21T03:28:28;97494.03;;;18.90;100.00
8697;BME280;4385;48.848;8.924;2023-03-21T03:30:56;97495.72;;;18.91;100.00
8697;BME280;4385;48.848;8.924;2023-03-21T03:33:24;97494.00;;;18.92;100.00
8697;BME280;4385;48.848;8.924;2023-03-21T03:35:51;97484.69;;;18.91;100.00
8697;BME280;4385;48.848;8.924;2023-03-21T03:38:20;97493.19;;;18.90;100.00
8697;BME280;4385;48.848;8.924;2023-03-21T03:40:50;97488.09;;;18.90;100.00
8697;BME280;4385;48.848;8.924;2023-03-21T03:43:21;97493.19;;;18.90;100.00
8697;BME280;4385;48.848;8.924;2023-03-21T03:45:59;97492.38;;;18.89;100.00
8697;BME280;4385;48.848;8.924;2023-03-21T03:48:31;97494.03;;;18.90;100.00
8697;BME280;4385;48.848;8.924;2023-03-21T03:51:06;97488.09;;;18.90;100.00
8697;BME280;4385;48.848;8.924;2023-03-21T03:53:35;97493.19;;;18.90;100.00
8697;BME280;4385;48.848;8.924;2023-03-21T03:56:03;97491.53;;;18.89;100.00
8697;BME280;4385;48.848;8.924;2023-03-21T03:58:29;97490.66;;;18.88;100.00
8697;BME280;4385;48.848;8.924;2023-03-21T04:00:56;97485.56;;;18.88;100.00
8697;BME280;4385;48.848;8.924;2023-03-21T04:03:22;97487.25;;;18.89;100.00
8697;BME280;4385;48.848;8.924;2023-03-21T04:05:47;97487.25;;;18.89;100.00
8697;BME280;4385;48.848;8.924;2023-03-21T04:08:13;97482.13;;;18.91;100.00
8697;BME280;4385;48.848;8.924;2023-03-21T04:10:42;97485.50;;;18.91;100.00
8697;BME280;4385;48.848;8.924;2023-03-21T04:13:08;97487.19;;;18.92;100.00
8697;BME280;4385;48.848;8.924;2023-03-21T04:15:33;97484.69;;;18.91;100.00
8697;BME280;4385;48.848;8.924;2023-03-21T04:17:59;97482.94;;;18.91;100.00
8697;BME280;4385;48.848;8.924;2023-03-21T04:20:24;97479.56;;;18.91;100.00
8697;BME280;4385;48.848;8.924;2023-03-21T04:22:50;97485.50;;;18.91;100.00
8697;BME280;4385;48.848;8.924;2023-03-21T04:25:16;97484.72;;;18.89;100.00
8697;BME280;4385;48.848;8.924;2023-03-21T04:27:41;97474.50;;;18.89;100.00
8697;BME280;4385;48.848;8.924;2023-03-21T04:30:07;97478.75;;;18.89;100.00
8697;BME280;4385;48.848;8.924;2023-03-21T04:32:33;97474.53;;;18.88;100.00
8697;BME280;4385;48.848;8.924;2023-03-21T04:35:04;97474.56;;;18.86;100.00
8697;BME280;4385;48.848;8.924;2023-03-21T04:37:30;97477.94;;;18.87;100.00
8697;BME280;4385;48.848;8.924;2023-03-21T04:39:58;97478.84;;;18.86;100.00
8697;BME280;4385;48.848;8.924;2023-03-21T04:42:23;97472.03;;;18.86;100.00
8697;BME280;4385;48.848;8.924;2023-03-21T04:44:48;97472.03;;;18.86;100.00
8697;BME280;4385;48.848;8.924;2023-03-21T04:47:14;97466.91;;;18.86;100.00
8697;BME280;4385;48.848;8.924;2023-03-21T04:49:41;97463.53;;;18.84;100.00
8697;BME280;4385;48.848;8.924;2023-03-21T04:52:06;97462.69;;;18.84;100.00
8697;BME280;4385;48.848;8.924;2023-03-21T04:54:32;97461.03;;;18.82;100.00
8697;BME280;4385;48.848;8.924;2023-03-21T04:56:57;97464.50;;;18.80;100.00
8697;BME280;4385;48.848;8.924;2023-03-21T04:59:23;97472.16;;;18.80;100.00
8697;BME280;4385;48.848;8.924;2023-03-21T05:01:48;97464.53;;;18.78;100.00
8697;BME280;4385;48.848;8.924;2023-03-21T05:04:14;97469.69;;;18.77;100.00
8697;BME280;4385;48.848;8.924;2023-03-21T05:06:40;97469.72;;;18.75;100.00
8697;BME280;4385;48.848;8.924;2023-03-21T05:09:07;97472.31;;;18.74;100.00
8697;BME280;4385;48.848;8.924;2023-03-21T05:11:34;97468.88;;;18.75;100.00
8697;BME280;4385;48.848;8.924;2023-03-21T05:14:02;97470.56;;;18.74;100.00
8697;BME280;4385;48.848;8.924;2023-03-21T05:16:28;97471.44;;;18.75;100.00
8697;BME280;4385;48.848;8.924;2023-03-21T05:18:55;97475.69;;;18.74;100.00
8697;BME280;4385;48.848;8.924;2023-03-21T05:21:23;97469.72;;;18.75;100.00
8697;BME280;4385;48.848;8.924;2023-03-21T05:23:48;97476.50;;;18.76;100.00
8697;BME280;4385;48.848;8.924;2023-03-21T05:26:21;97475.59;;;18.77;100.00
8697;BME280;4385;48.848;8.924;2023-03-21T05:28:47;97469.66;;;18.78;100.00
8697;BME280;4385;48.848;8.924;2023-03-21T05:31:14;97466.22;;;18.79;100.00
8697;BME280;4385;48.848;8.924;2023-03-21T05:33:43;97464.47;;;18.81;100.00
8697;BME280;4385;48.848;8.924;2023-03-21T05:36:09;97467.03;;;18.81;100.00
8697;BME280;4385;48.848;8.924;2023-03-21T05:38:34;97464.47;;;18.81;100.00
8697;BME280;4385;48.848;8.924;2023-03-21T05:40:59;97468.75;;;18.79;100.00
8697;BME280;4385;48.848;8.924;2023-03-21T05:43:25;97473.88;;;18.79;100.00
8697;BME280;4385;48.848;8.924;2023-03-21T05:45:50;97473.91;;;18.78;100.00
8697;BME280;4385;48.848;8.924;2023-03-21T05:48:16;97478.16;;;18.77;100.00
8697;BME280;4385;48.848;8.924;2023-03-21T05:50:41;97476.50;;;18.76;100.00
8697;BME280;4385;48.848;8.924;2023-03-21T05:53:06;97477.38;;;18.75;100.00
8697;BME280;4385;48.848;8.924;2023-03-21T05:55:32;97477.44;;;18.72;100.00
8697;BME280;4385;48.848;8.924;2023-03-21T05:57:57;97477.44;;;18.72;100.00
8697;BME280;4385;48.848;8.924;2023-03-21T06:00:23;97480.84;;;18.71;100.00
8697;BME280;4385;48.848;8.924;2023-03-21T06:02:48;97484.28;;;18.70;100.00
8697;BME280;4385;48.848;8.924;2023-03-21T06:05:13;97483.41;;;18.71;100.00
8697;BME280;4385;48.848;8.924;2023-03-21T06:07:39;97491.03;;;18.73;100.00
8697;BME280;4385;48.848;8.924;2023-03-21T06:10:05;97490.16;;;18.75;100.00
8697;BME280;4385;48.848;8.924;2023-03-21T06:12:31;97486.72;;;18.76;100.00
8697;BME280;4385;48.848;8.924;2023-03-21T06:14:56;97488.31;;;18.80;100.00
8697;BME280;4385;48.848;8.924;2023-03-21T06:17:22;97488.22;;;18.84;100.00
8697;BME280;4385;48.848;8.924;2023-03-21T06:19:47;97489.00;;;18.87;100.00
8697;BME280;4385;48.848;8.924;2023-03-21T06:22:12;97480.41;;;18.90;100.00
8697;BME280;4385;48.848;8.924;2023-03-21T06:24:37;97476.97;;;18.92;100.00
8697;BME280;4385;48.848;8.924;2023-03-21T06:27:03;97483.69;;;18.97;100.00
8697;BME280;4385;48.848;8.924;2023-03-21T06:29:29;97480.19;;;18.99;100.00
8697;BME280;4385;48.848;8.924;2023-03-21T06:31:55;97482.75;;;18.99;100.00
8697;BME280;4385;48.848;8.924;2023-03-21T06:34:21;97474.25;;;19.00;100.00
8697;BME280;4385;48.848;8.924;2023-03-21T06:36:46;97475.06;;;19.01;100.00
8697;BME280;4385;48.848;8.924;2023-03-21T06:39:11;97473.34;;;19.01;100.00
8697;BME280;4385;48.848;8.924;2023-03-21T06:41:37;97472.38;;;19.05;100.00
8697;BME280;4385;48.848;8.924;2023-03-21T06:44:03;97473.19;;;19.07;100.00
8697;BME280;4385;48.848;8.924;2023-03-21T06:46:28;97474.91;;;19.09;100.00
8697;BME280;4385;48.848;8.924;2023-03-21T06:48:54;97473.19;;;19.09;100.00
8697;BME280;4385;48.848;8.924;2023-03-21T06:51:19;97468.94;;;19.10;100.00
8697;BME280;4385;48.848;8.924;2023-03-21T06:53:45;97477.38;;;19.12;100.00
8697;BME280;4385;48.848;8.924;2023-03-21T06:56:12;97468.84;;;19.13;100.00
8697;BME280;4385;48.848;8.924;2023-03-21T06:58:39;97472.19;;;19.15;100.00
8697;BME280;4385;48.848;8.924;2023-03-21T07:01:05;97469.59;;;19.16;100.00
8697;BME280;4385;48.848;8.924;2023-03-21T07:03:31;97477.19;;;19.19;100.00
8697;BME280;4385;48.848;8.924;2023-03-21T07:05:57;97466.88;;;19.23;100.00
8697;BME280;4385;48.848;8.924;2023-03-21T07:08:22;97469.31;;;19.27;100.00
8697;BME280;4385;48.848;8.924;2023-03-21T07:10:48;97474.28;;;19.34;100.00
8697;BME280;4385;48.848;8.924;2023-03-21T07:13:13;97470.78;;;19.38;100.00
8697;BME280;4385;48.848;8.924;2023-03-21T07:15:39;97474.91;;;19.42;100.00
8697;BME280;4385;48.848;8.924;2023-03-21T07:18:07;97476.50;;;19.46;100.00
8697;BME280;4385;48.848;8.924;2023-03-21T07:20:33;97467.91;;;19.50;100.00
8697;BME280;4385;48.848;8.924;2023-03-21T07:22:59;97475.44;;;19.55;100.00
8697;BME280;4385;48.848;8.924;2023-03-21T07:25:26;97479.53;;;19.61;100.00
8697;BME280;4385;48.848;8.924;2023-03-21T07:27:51;97475.94;;;19.68;100.00
8697;BME280;4385;48.848;8.924;2023-03-21T07:30:17;97483.50;;;19.71;100.00
8697;BME280;4385;48.848;8.924;2023-03-21T07:32:43;97479.13;;;19.76;100.00
8697;BME280;4385;48.848;8.924;2023-03-21T07:35:11;97479.03;;;19.79;100.00
8697;BME280;4385;48.848;8.924;2023-03-21T07:37:37;97477.28;;;19.81;100.00
8697;BME280;4385;48.848;8.924;2023-03-21T07:40:03;97472.94;;;19.84;100.00
8697;BME280;4385;48.848;8.924;2023-03-21T07:42:36;97472.09;;;19.85;100.00
8697;BME280;4385;48.848;8.924;2023-03-21T07:45:02;97473.75;;;19.86;100.00
8697;BME280;4385;48.848;8.924;2023-03-21T07:47:29;97469.44;;;19.88;100.00
8697;BME280;4385;48.848;8.924;2023-03-21T07:49:54;97461.72;;;19.89;100.00
8697;BME280;4385;48.848;8.924;2023-03-21T07:52:20;97465.94;;;19.90;100.00
8697;BME280;4385;48.848;8.924;2023-03-21T07:54:45;97464.25;;;19.91;100.00
8697;BME280;4385;48.848;8.924;2023-03-21T07:57:10;97476.97;;;19.92;100.00
8697;BME280;4385;48.848;8.924;2023-03-21T07:59:36;97468.41;;;19.93;100.00
8697;BME280;4385;48.848;8.924;2023-03-21T08:02:01;97468.38;;;19.95;100.00
8697;BME280;4385;48.848;8.924;2023-03-21T08:04:26;97469.94;;;19.99;100.00
8697;BME280;4385;48.848;8.924;2023-03-21T08:06:52;97469.03;;;20.03;100.00
8697;BME280;4385;48.848;8.924;2023-03-21T08:09:17;97481.63;;;20.10;100.00
8697;BME280;4385;48.848;8.924;2023-03-21T08:11:42;97477.16;;;20.16;100.00
8697;BME280;4385;48.848;8.924;2023-03-21T08:14:08;97465.94;;;20.22;100.00
8697;BME280;4385;48.848;8.924;2023-03-21T08:16:33;97468.41;;;20.25;100.00
8697;BME280;4385;48.848;8.924;2023-03-21T08:18:58;97471.59;;;20.32;100.00
8697;BME280;4385;48.848;8.924;2023-03-21T08:21:23;97464.66;;;20.36;100.00
8697;BME280;4385;48.848;8.924;2023-03-21T08:23:49;97463.63;;;20.41;100.00
8697;BME280;4385;48.848;8.924;2023-03-21T08:26:14;97460.16;;;20.44;100.00
8697;BME280;4385;48.848;8.924;2023-03-21T08:28:43;97455.75;;;20.48;100.00
8697;BME280;4385;48.848;8.924;2023-03-21T08:31:10;97453.97;;;20.51;100.00
8697;BME280;4385;48.848;8.924;2023-03-21T08:33:36;97461.53;;;20.54;100.00
8697;BME280;4385;48.848;8.924;2023-03-21T08:36:03;97458.97;;;20.54;100.00
8697;BME280;4385;48.848;8.924;2023-03-21T08:38:28;97451.31;;;20.54;100.00
8697;BME280;4385;48.848;8.924;2023-03-21T08:40:55;97452.97;;;20.55;100.00
8697;BME280;4385;48.848;8.924;2023-03-21T08:43:21;97449.63;;;20.53;100.00
8697;BME280;4385;48.848;8.924;2023-03-21T08:45:47;97447.13;;;20.52;100.00
8697;BME280;4385;48.848;8.924;2023-03-21T08:48:12;97446.28;;;20.51;100.00
8697;BME280;4385;48.848;8.924;2023-03-21T08:50:38;97454.84;;;20.50;100.00
8697;BME280;4385;48.848;8.924;2023-03-21T08:53:03;97445.53;;;20.48;100.00
8697;BME280;4385;48.848;8.924;2023-03-21T08:55:29;97449.03;;;20.45;100.00
8697;BME280;4385;48.848;8.924;2023-03-21T08:57:57;97444.84;;;20.42;100.00
8697;BME280;4385;48.848;8.924;2023-03-21T09:00:22;97450.03;;;20.41;100.00
8697;BME280;4385;48.848;8.924;2023-03-21T09:02:49;97442.34;;;20.41;100.00
8697;BME280;4385;48.848;8.924;2023-03-21T09:05:16;97444.91;;;20.41;100.00
8697;BME280;4385;48.848;8.924;2023-03-21T09:07:43;97441.50;;;20.40;100.00
8697;BME280;4385;48.848;8.924;2023-03-21T09:10:11;97442.38;;;20.39;100.00
8697;BME280;4385;48.848;8.924;2023-03-21T09:12:37;97431.31;;;20.39;100.00
8697;BME280;4385;48.848;8.924;2023-03-21T09:15:03;97435.53;;;20.40;100.00
8697;BME280;4385;48.848;8.924;2023-03-21T09:17:30;97431.25;;;20.40;100.00
8697;BME280;4385;48.848;8.924;2023-03-21T09:19:57;97432.97;;;20.40;100.00
8697;BME280;4385;48.848;8.924;2023-03-21T09:22:25;97438.94;;;20.40;100.00
8697;BME280;4385;48.848;8.924;2023-03-21T09:24:51;97438.94;;;20.40;100.00
8697;BME280;4385;48.848;8.924;2023-03-21T09:27:18;97445.75;;;20.40;100.00
8697;BME280;4385;48.848;8.924;2023-03-21T09:29:47;97438.09;;;20.40;100.00
8697;BME280;4385;48.848;8.924;2023-03-21T09:32:12;97447.47;;;20.41;100.00
8697;BME280;4385;48.848;8.924;2023-03-21T09:34:38;97438.09;;;20.40;100.00
8697;BME280;4385;48.848;8.924;2023-03-21T09:37:06;97437.28;;;20.39;100.00
8697;BME280;4385;48.848;8.924;2023-03-21T09:39:37;97443.19;;;20.40;100.00
8697;BME280;4385;48.848;8.924;2023-03-21T09:42:09;97437.31;;;20.38;100.00
8697;BME280;4385;48.848;8.924;2023-03-21T09:44:50;97437.31;;;20.38;100.00
8697;BME280;4385;48.848;8.924;2023-03-21T09:47:21;97443.28;;;20.37;100.00
8697;BME280;4385;48.848;8.924;2023-03-21T09:50:06;97425.44;;;20.35;100.00
8697;BME280;4385;48.848;8.924;2023-03-21T09:52:42;97433.16;;;20.34;100.00
8697;BME280;4385;48.848;8.924;2023-03-21T09:55:21;97428.94;;;20.33;100.00
8697;BME280;4385;48.848;8.924;2023-03-21T09:57:55;97428.13;;;20.30;100.00
8697;BME280;4385;48.848;8.924;2023-03-21T10:00:28;97426.47;;;20.29;100.00
8697;BME280;4385;48.848;8.924;2023-03-21T10:02:57;97418.78;;;20.29;100.00
8697;BME280;4385;48.848;8.924;2023-03-21T10:05:29;97428.13;;;20.30;100.00
8697;BME280;4385;48.848;8.924;2023-03-21T10:08:07;97419.53;;;20.33;100.00
8697;BME280;4385;48.848;8.924;2023-03-21T10:10:36;97414.38;;;20.35;100.00
8697;BME280;4385;48.848;8.924;2023-03-21T10:13:06;97420.25;;;20.37;100.00
8697;BME280;4385;48.848;8.924;2023-03-21T10:15:36;97417.75;;;20.35;100.00
8697;BME280;4385;48.848;8.924;2023-03-21T10:18:04;97410.03;;;20.37;100.00
8697;BME280;4385;48.848;8.924;2023-03-21T10:20:33;97416.84;;;20.38;100.00
8697;BME280;4385;48.848;8.924;2023-03-21T10:23:00;97412.59;;;20.37;100.00
8697;BME280;4385;48.848;8.924;2023-03-21T10:25:34;97418.56;;;20.37;100.00
8697;BME280;4385;48.848;8.924;2023-03-21T10:28:03;97406.56;;;20.39;100.00
8697;BME280;4385;48.848;8.924;2023-03-21T10:30:44;97406.50;;;20.41;100.00
8697;BME280;4385;48.848;8.924;2023-03-21T10:33:14;97404.75;;;20.41;100.00
8697;BME280;4385;48.848;8.924;2023-03-21T10:35:44;97402.16;;;20.43;100.00
8697;BME280;4385;48.848;8.924;2023-03-21T10:38:18;97401.34;;;20.42;100.00
8697;BME280;4385;48.848;8.924;2023-03-21T10:40:45;97402.16;;;20.43;100.00
8697;BME280;4385;48.848;8.924;2023-03-21T10:45:50;97400.44;;;20.43;100.00
8697;BME280;4385;48.848;8.924;2023-03-21T10:48:16;97401.34;;;20.42;100.00
8697;BME280;4385;48.848;8.924;2023-03-21T10:50:45;97400.50;;;20.42;100.00
8697;BME280;4385;48.848;8.924;2023-03-21T10:53:16;97401.41;;;20.41;100.00
8697;BME280;4385;48.848;8.924;2023-03-21T10:55:46;97406.50;;;20.41;100.00
8697;BME280;4385;48.848;8.924;2023-03-21T10:58:15;97405.63;;;20.42;100.00
8697;BME280;4385;48.848;8.924;2023-03-21T11:00:44;97407.28;;;20.43;100.00
8697;BME280;4385;48.848;8.924;2023-03-21T11:03:20;97391.91;;;20.43;100.00
8697;BME280;4385;48.848;8.924;2023-03-21T11:05:47;97393.63;;;20.44;100.00
8697;BME280;4385;48.848;8.924;2023-03-21T11:08:17;97389.31;;;20.44;100.00
8697;BME280;4385;48.848;8.924;2023-03-21T11:11:18;97388.53;;;20.42;100.00
8697;BME280;4385;48.848;8.924;2023-03-21T11:13:44;97387.66;;;20.43;100.00
8697;BME280;4385;48.848;8.924;2023-03-21T11:16:17;97380.88;;;20.42;100.00
8697;BME280;4385;48.848;8.924;2023-03-21T11:18:45;97391.06;;;20.44;100.00
8697;BME280;4385;48.848;8.924;2023-03-21T11:21:14;97385.94;;;20.44;100.00
8697;BME280;4385;48.848;8.924;2023-03-21T11:23:43;97382.47;;;20.45;100.00
8697;BME280;4385;48.848;8.924;2023-03-21T11:26:17;97390.97;;;20.47;100.00
8697;BME280;4385;48.848;8.924;2023-03-21T11:28:45;97383.28;;;20.47;100.00
8697;BME280;4385;48.848;8.924;2023-03-21T11:31:11;97381.59;;;20.46;100.00
8697;BME280;4385;48.848;8.924;2023-03-21T11:33:37;97380.81;;;20.44;100.00
8697;BME280;4385;48.848;8.924;2023-03-21T11:36:05;97384.16;;;20.46;100.00
8697;BME280;4385;48.848;8.924;2023-03-21T11:38:35;97383.28;;;20.47;100.00
8697;BME280;4385;48.848;8.924;2023-03-21T11:41:03;97373.84;;;20.48;100.00
8697;BME280;4385;48.848;8.924;2023-03-21T11:43:38;97369.69;;;20.45;100.00
8697;BME280;4385;48.848;8.924;2023-03-21T11:46:04;97360.28;;;20.46;100.00
8697;BME280;4385;48.848;8.924;2023-03-21T11:48:43;97357.00;;;20.42;100.00
8697;BME280;4385;48.848;8.924;2023-03-21T11:53:48;97349.22;;;20.45;100.00
8697;BME280;4385;48.848;8.924;2023-03-21T11:56:25;97350.09;;;20.44;100.00
8697;BME280;4385;48.848;8.924;2023-03-21T11:59:41;97354.47;;;20.40;100.00
8697;BME280;4385;48.848;8.924;2023-03-21T12:02:12;97348.63;;;20.37;100.00
8697;BME280;4385;48.848;8.924;2023-03-21T12:19:16;97321.09;;;20.43;100.00
8697;BME280;4385;48.848;8.924;2023-03-21T12:32:20;97300.06;;;20.61;100.00
8697;BME280;4385;48.848;8.924;2023-03-21T12:38:14;97302.53;;;20.64;100.00
8697;BME280;4385;48.848;8.924;2023-03-21T12:44:28;97299.81;;;20.68;100.00
8697;BME280;4385;48.848;8.924;2023-03-21T12:46:35;97288.72;;;20.68;100.00
8697;BME280;4385;48.848;8.924;2023-03-21T12:49:17;97293.78;;;20.69;100.00
8697;BME280;4385;48.848;8.924;2023-03-21T12:51:50;97292.00;;;20.72;100.00
8697;BME280;4385;48.848;8.924;2023-03-21T12:54:30;97292.88;;;20.72;100.00
8697;BME280;4385;48.848;8.924;2023-03-21T12:57:15;97291.97;;;20.73;100.00
8697;BME280;4385;48.848;8.924;2023-03-21T12:59:49;97291.06;;;20.74;100.00
8697;BME280;4385;48.848;8.924;2023-03-21T13:02:27;97286.78;;;20.75;100.00
8697;BME280;4385;48.848;8.924;2023-03-21T13:05:03;97280.78;;;20.76;100.00
8697;BME280;4385;48.848;8.924;2023-03-21T13:07:33;97283.38;;;20.74;100.00
8697;BME280;4385;48.848;8.924;2023-03-21T13:10:05;97289.28;;;20.76;100.00
8697;BME280;4385;48.848;8.924;2023-03-21T13:13:00;97291.84;;;20.76;100.00
8697;BME280;4385;48.848;8.924;2023-03-21T13:18:32;97274.84;;;20.75;100.00
8697;BME280;4385;48.848;8.924;2023-03-21T13:21:13;97276.53;;;20.75;100.00
8697;BME280;4385;48.848;8.924;2023-03-21T13:23:54;97272.31;;;20.74;100.00
8697;BME280;4385;48.848;8.924;2023-03-21T13:26:19;97277.41;;;20.75;100.00
8697;BME280;4385;48.848;8.924;2023-03-21T13:28:46;97267.97;;;20.76;100.00
8697;BME280;4385;48.848;8.924;2023-03-21T13:31:21;97273.94;;;20.76;100.00
8697;BME280;4385;48.848;8.924;2023-03-21T13:33:50;97275.66;;;20.76;100.00
8697;BME280;4385;48.848;8.924;2023-03-21T13:36:44;97274.84;;;20.75;100.00
8697;BME280;4385;48.848;8.924;2023-03-21T13:39:17;97279.09;;;20.75;100.00
8697;BME280;4385;48.848;8.924;2023-03-21T13:41:45;97268.88;;;20.75;100.00
8697;BME280;4385;48.848;8.924;2023-03-21T13:47:23;97240.81;;;20.72;100.00
8697;BME280;4385;48.848;8.924;2023-03-21T13:52:38;97231.69;;;20.64;100.00
8697;BME280;4385;48.848;8.924;2023-03-21T13:55:14;97236.81;;;20.64;100.00
8697;BME280;4385;48.848;8.924;2023-03-21T13:57:40;97224.88;;;20.63;100.00
8697;BME280;4385;48.848;8.924;2023-03-21T14:00:15;97230.84;;;20.64;100.00
8697;BME280;4385;48.848;8.924;2023-03-21T14:03:04;97234.31;;;20.63;100.00
8697;BME280;4385;48.848;8.924;2023-03-21T14:05:32;97235.13;;;20.63;100.00
8697;BME280;4385;48.848;8.924;2023-03-21T14:08:25;97234.19;;;20.66;100.00
8697;BME280;4385;48.848;8.924;2023-03-21T14:10:55;97230.84;;;20.64;100.00
8697;BME280;4385;48.848;8.924;2023-03-21T14:13:24;97225.66;;;20.65;100.00
8697;BME280;4385;48.848;8.924;2023-03-21T14:15:52;97223.16;;;20.64;100.00
8697;BME280;4385;48.848;8.924;2023-03-21T14:18:20;97226.56;;;20.64;100.00
8697;BME280;4385;48.848;8.924;2023-03-21T14:20:52;97228.22;;;20.65;100.00
8697;BME280;4385;48.848;8.924;2023-03-21T14:23:19;97228.97;;;20.69;100.00
8697;BME280;4385;48.848;8.924;2023-03-21T14:25:45;97233.25;;;20.68;100.00
8697;BME280;4385;48.848;8.924;2023-03-21T14:28:26;97230.63;;;20.70;100.00
8697;BME280;4385;48.848;8.924;2023-03-21T14:30:56;97228.97;;;20.69;100.00